Nearby METAR Reports

 

KSJC - San Jose, California, USA
Distance from station: NE 9mi, 14km
Updated: Sun, 23-Jun-2024 10:53am EDT
Clear
Clear
 Wind from varies
Wind: varies 3 mph , 6 km/h
Temperature: 66°F , 19°C
Dew Point: 55°F , 13°C
Humidity: 68%
Barometer: 29.88 inHg , 1011.9 hPa
Clouds: Clear
Visibility: 10 miles , 16 km
2024/06/23 14:53 KSJC 231453Z VRB03KT 10SM CLR 19/13 A2988 RMK AO2 SLP117 T01940128 53011
KNUQ - Moffett Nas/Mtn, California, USA
Distance from station: N 9mi, 14km
Updated: Sun, 23-Jun-2024 11:15am EDT
Clear
Clear
 Wind from calm
Wind: Calm
Temperature: 63°F , 17°C
Dew Point: 55°F , 13°C
Humidity: 77%
Barometer: 29.89 inHg , 1012.2 hPa
Clouds: Clear
Visibility: 8 miles , 13 km
2024/06/23 15:15 KNUQ 231515Z AUTO 00000KT 8SM CLR 17/13 A2989 RMK AO2
 
KPAO - Palo Alto, California, USA
Distance from station: NNW 14mi, 23km
Updated: Sun, 23-Jun-2024 11:15am EDT
Clear
Clear
 Wind from NNW
Wind: NNW 5 mph , 7 km/h
Temperature: 63°F , 17°C
Dew Point: 55°F , 13°C
Humidity: 77%
Barometer: 29.89 inHg , 1012.2 hPa
Clouds: Clear
Visibility: 8 miles , 13 km
2024/06/23 15:15 KPAO 231515Z 34004KT 8SM SKC 17/13 A2989
KRHV - San Jose/Reid, California, USA
Distance from station: ENE 12mi, 19km
Updated: Sun, 23-Jun-2024 10:47am EDT
Clear
Clear
 Wind from calm
Wind: Calm
Temperature: 66°F , 19°C
Dew Point: 54°F , 12°C
Humidity: 64%
Barometer: 29.88 inHg , 1011.9 hPa
Clouds: Clear
Visibility: 10 miles , 16 km
2024/06/23 14:47 KRHV 231447Z 00000KT 10SM SKC 19/12 A2988
 
KOAK - Oakland, California, USA
Distance from station: NNW 31mi, 50km
Updated: Sun, 23-Jun-2024 10:53am EDT
Clear
Clear
 Wind from NW
Wind: NW 9 mph , 15 km/h
Temperature: 61°F , 16°C
Dew Point: 55°F , 13°C
Humidity: 83%
Barometer: 29.90 inHg , 1012.5 hPa
Clouds: Clear
Visibility: 10 miles , 16 km
2024/06/23 14:53 KOAK 231453Z 31008KT 10SM CLR 16/13 A2990 RMK AO2 SLP123 T01560128 53013
KSQL - San Carlos Airpo, California, USA
Distance from station: NW 21mi, 34km
Updated: Sun, 23-Jun-2024 10:47am EDT
Clear
Clear
 Wind from calm
Wind: Calm
Temperature: 63°F , 17°C
Dew Point: 54°F , 12°C
Humidity: 73%
Barometer: 29.89 inHg , 1012.2 hPa
Clouds: Clear
Visibility: 10 miles , 16 km
2024/06/23 14:47 KSQL 231447Z 00000KT 10SM CLR 17/12 A2989
 
KSFO - San Francisco, California, USA
Distance from station: NW 30mi, 49km
Updated: Sun, 23-Jun-2024 10:56am EDT
Few Clouds
Few Clouds
 Wind from NW
Wind: NW 10 mph , 17 km/h
Temperature: 57°F , 14°C
Dew Point: 52°F , 11°C
Humidity: 82%
Barometer: 29.89 inHg , 1012.2 hPa
Clouds: Few Clouds
Visibility: 10 miles , 16 km
Cloud details: Few Clouds 600 ft
2024/06/23 14:56 KSFO 231456Z 31009KT 10SM FEW006 14/11 A2989 RMK AO2 SLP120 T01390106 53012
KE16 - San Martin, California, USA
Distance from station: ESE 27mi, 43km
Updated: Sun, 23-Jun-2024 11:15am EDT
Clear
Clear
 Wind from SE
Wind: SE 8 mph , 13 km/h
Temperature: 64°F , 18°C
Dew Point: 50°F , 10°C
Humidity: 60%
Barometer: 29.92 inHg , 1013.2 hPa
Clouds: Clear
Visibility: 10 miles , 16 km
2024/06/23 15:15 KE16 231515Z AUTO 14007KT 10SM CLR 18/10 A2992 RMK AO2 PWINO PNO
 
KWVI - Watsonville, California, USA
Distance from station: SSE 27mi, 44km
Updated: Sun, 23-Jun-2024 10:53am EDT
Few Clouds
Few Clouds
 Wind from calm
Wind: Calm
Temperature: 55°F , 13°C
Dew Point: 54°F , 12°C
Humidity: 94%
Barometer: 29.92 inHg , 1013.2 hPa
Clouds: Few Clouds
Visibility: 9 miles , 14 km
Cloud details: Few Clouds 200 ft
2024/06/23 14:53 KWVI 231453Z AUTO 00000KT 9SM FEW002 13/12 A2992 RMK AO2 SLP130 T01280117 51008
KHAF - Half Moon Bay, California, USA
Distance from station: WNW 31mi, 50km
Updated: Sun, 23-Jun-2024 11:15am EDT
Mist
Mist
 Wind from SE
Wind: SE 7 mph , 11 km/h
Temperature: 52°F , 11°C
Dew Point: 52°F , 11°C
Humidity: 100%
Barometer: 29.92 inHg , 1013.2 hPa
Summary: Mist
Visibility: 2 1/2 miles , 4 km
2024/06/23 15:15 KHAF 231515Z AUTO 14006KT 2 1/2SM BR 11/11 A2992 RMK AO2
 
KHWD - Hayward, California, USA
Distance from station: N 28mi, 44km
Updated: Sun, 23-Jun-2024 10:54am EDT
Clear
Clear
 Wind from WNW
Wind: WNW 5 mph , 7 km/h
Temperature: 63°F , 17°C
Dew Point: 52°F , 11°C
Humidity: 68%
Barometer: 29.88 inHg , 1011.9 hPa
Clouds: Clear
Visibility: 10 miles , 16 km
2024/06/23 14:54 KHWD 231454Z 30004KT 10SM CLR 17/11 A2988 RMK AO2 SLP127 T01670111 53012
KLVK - Livermore, California, USA
Distance from station: NNE 31mi, 51km
Updated: Sun, 23-Jun-2024 10:53am EDT
Clear
Clear
 Wind from varies
Wind: varies 3 mph , 6 km/h
Temperature: 70°F , 21°C
Dew Point: 52°F , 11°C
Humidity: 53%
Barometer: 29.86 inHg , 1011.2 hPa
Clouds: Clear
Visibility: 8 miles , 13 km
2024/06/23 14:53 KLVK 231453Z AUTO VRB03KT 8SM CLR 21/11 A2986 RMK AO2 SLP107 T02110111 53011